Ana Sayfa
METAR-TAF:

METAR-TAF

Havaalanları :

Tan Son Nhat Uluslararası Havalimanı

Ho Chi Minh Kenti, Vietnam

Enlem: 10-49N, Boylam: 106-40E, yükseklik: 19 m

Güncel hava durumu gözlemi

Rapor saat 09:30 UTC de 45 dakika önce yapıldı.
Rüzgar güneydan 13 kt, güney/güneydoğu ve güney/güneybatı arasında değişken
Sıcaklık 31°C
Nem 46%
Basınç 1008 hPa
Görüş mesafesi 10 km veya daha fazla
2000 ft yükseklikte parçalı bulutlu

METAR: VVTS 280930Z 18013KT 150V210 9999 SCT020 31/18 Q1008 NOSIG

Saat: 17:15 (10:15 UTC)

Tahmin

Rapor saat 05:00 UTC de 5 saat ve 15 dakika önce yapıldı.
Ayın 28'si saat 06 UTC'den ayın 29'si saat 12 UTC'ye kadar geçerli Tahmin
Rüzgar değişken yönden 3 kt
Görüş mesafesi 10 km veya daha fazla
2000 ft yükseklikte parçalı bulutlu
Dönüşüyor
ayın 28'si saat 12 UTC'den ayın 28'si saat 13 UTC'ye kadar
Rüzgar güney/güneydoğudan 10 kt

TAF: VVTS 280500Z 2806/2912 VRB03KT 9999 SCT020 BECMG 2812/2813 16010KT

4.000'den fazla havaalanı için hava durumu gözlemleri ve tahminleri (METAR ve TAF raporları).

Kullanılabilir istasyonlar harita üzerinde sarı ve kırmızı noktalarla gösterilir.

İstasyonun adını görmek için fareyi noktanın üzerinde gezdirin.

Sonrasında hava gözlem ve tahminlerini görmek için tıklayın.

Haritayı değiştirmek için: yaklaştırmak için siyah artı işaretli yeşil düğmeye ve uzaklaştırmak için de eksi işaretli düğmeye hızla tıklayın; bitişik haritalar için yeşil okları kullanın.


METAR-TAF: